Bookmark and Share
Track history (hours):
 

Lr2 Pioneer

Last reported at 2014-Apr-20 22:31 UTC. Time now 2014-Apr-21 15:13 UTC.
Position N 31°37' E 032°19'.

Length 244 m; draft 9.6 m.

Type: Ship. MMSI: 477114400.

NotesDate/timePositionNaut miles runAvg speedWind from/ knotsBaromVisibWave heightAir tempDewpointWater temp
2014-Apr-20 22:31N 31°37' E 032°19'0 0.0
2014-Apr-20 20:22N 31°37' E 032°19'0 0.0
2014-Apr-20 18:31N 31°37' E 032°19'0 0.0
2014-Apr-20 17:31N 31°37' E 032°19'0 0.0
2014-Apr-20 15:28N 31°37' E 032°19'0 0.0
2014-Apr-20 14:31N 31°37' E 032°19'0 0.0
2014-Apr-20 13:28N 31°37' E 032°19'0 0.0
2014-Apr-20 12:25N 31°37' E 032°19'0 0.0
2014-Apr-19 17:31N 31°37' E 032°19'1 0.3
2014-Apr-19 12:10N 31°38' E 032°18'1 1.3
2014-Apr-19 11:34N 31°38' E 032°17'1 0.5
2014-Apr-19 10:33N 31°38' E 032°16'1 0.7
2014-Apr-19 09:29N 31°38' E 032°17'1 0.9
2014-Apr-19 08:33N 31°39' E 032°18'1 0.7
2014-Apr-19 07:33N 31°39' E 032°18'2 2.1
2014-Apr-19 06:26N 31°36' E 032°18'1 0.7
2014-Apr-19 05:34N 31°37' E 032°18'1 0.7
2014-Apr-19 04:33N 31°38' E 032°19'1 0.6
2014-Apr-19 03:29N 31°38' E 032°19'0 0.3
2014-Apr-19 02:33N 31°38' E 032°19'3 2.6
2014-Apr-19 01:34N 31°36' E 032°20'1 1.0
2014-Apr-19 00:33N 31°37' E 032°19'1 1.0
2014-Apr-18 23:33N 31°37' E 032°19'5 4.7
2014-Apr-18 22:29N 31°38' E 032°25'1111.5
2014-Apr-18 21:34N 31°43' E 032°35'38712.1
2014-Apr-17 13:32N 36°15' E 027°03'1111.7
2014-Apr-17 12:33N 36°24' E 026°54'1211.9
2014-Apr-17 11:32N 36°33' E 026°44'1211.7
2014-Apr-17 10:33N 36°40' E 026°33'1111.3
2014-Apr-17 09:32N 36°48' E 026°23'1111.6
2014-Apr-17 08:34N 36°56' E 026°13'1211.5
2014-Apr-17 07:33N 37°04' E 026°02'1111.5
2014-Apr-17 06:33N 37°12' E 025°52'1211.7
2014-Apr-17 05:31N 37°23' E 025°46'1211.9
2014-Apr-17 04:30N 37°35' E 025°41'1111.4
2014-Apr-17 03:32N 37°45' E 025°36'1212.0
2014-Apr-17 02:30N 37°57' E 025°31'1112.2
2014-Apr-17 01:33N 38°08' E 025°29'8710.7
2014-Apr-16 17:26N 39°35' E 025°39'910.5
2014-Apr-16 16:34N 39°43' E 025°45'1310.3
2014-Apr-16 15:21N 39°54' E 025°52'179 4.0
2014-Apr-14 18:34N 41°28' E 029°13'0 0.2
2014-Apr-14 17:34N 41°28' E 029°13'0 0.1
2014-Apr-14 16:34N 41°28' E 029°13'0 0.1
2014-Apr-14 15:34N 41°28' E 029°13'0 0.2
2014-Apr-14 14:34N 41°27' E 029°13'0 0.1
2014-Apr-14 13:34N 41°27' E 029°13'0 0.2
2014-Apr-14 11:33N 41°27' E 029°13'0 0.2
2014-Apr-14 10:33N 41°27' E 029°13'0 0.2
2014-Apr-14 09:34N 41°27' E 029°13'0 0.1
2014-Apr-14 08:30N 41°27' E 029°13'0 0.2
2014-Apr-14 06:34N 41°27' E 029°12'311 8.1
2014-Apr-12 16:19N 43°26' E 035°42'3111.2
2014-Apr-12 13:31N 43°48' E 036°13'  

Dump ship's entire track history

sailing weather and tide predictions

Lr2 Pioneer — VREE7 — position and weather